createdAt,value
2018-06-19T00:00:26.605Z,22.24
2018-06-19T00:01:26.416Z,22.23
2018-06-19T00:02:26.768Z,22.23
2018-06-19T00:03:26.508Z,22.23
2018-06-19T00:04:26.522Z,22.23
2018-06-19T00:05:26.531Z,22.23
2018-06-19T00:06:26.536Z,22.23
2018-06-19T00:07:26.419Z,22.22
2018-06-19T00:08:26.407Z,22.23
2018-06-19T00:09:26.507Z,22.23
2018-06-19T00:10:26.643Z,22.21
2018-06-19T00:11:26.479Z,22.22
2018-06-19T00:12:26.482Z,22.22
2018-06-19T00:13:26.564Z,22.22
2018-06-19T00:14:26.591Z,22.22
2018-06-19T00:15:26.427Z,22.22
2018-06-19T00:16:26.496Z,22.22
2018-06-19T00:17:26.641Z,22.22
2018-06-19T00:18:26.590Z,22.23
2018-06-19T00:19:26.423Z,22.22
2018-06-19T00:20:26.445Z,22.23
2018-06-19T00:21:26.349Z,22.22
2018-06-19T00:22:26.621Z,22.21
2018-06-19T00:23:26.556Z,22.21
2018-06-19T00:24:26.402Z,22.22
2018-06-19T00:25:26.640Z,22.22
2018-06-19T00:26:26.606Z,22.22
2018-06-19T00:27:26.919Z,22.21
2018-06-19T00:28:26.625Z,22.22
2018-06-19T00:29:26.466Z,22.22
2018-06-19T00:30:26.361Z,22.22
2018-06-19T00:31:26.466Z,22.21
2018-06-19T00:32:26.383Z,22.22
2018-06-19T00:33:26.342Z,22.21
2018-06-19T00:34:26.555Z,22.21
2018-06-19T00:35:26.495Z,22.21
2018-06-19T00:36:26.444Z,22.22
2018-06-19T00:37:26.341Z,22.2
2018-06-19T00:38:26.529Z,22.21
2018-06-19T00:39:26.481Z,22.2
2018-06-19T00:40:26.625Z,22.2
2018-06-19T00:41:26.463Z,22.21
2018-06-19T00:42:26.390Z,22.21
2018-06-19T00:43:26.584Z,22.2
2018-06-19T00:44:26.557Z,22.21
2018-06-19T00:45:26.557Z,22.21
2018-06-19T00:46:26.402Z,22.21
2018-06-19T00:47:26.451Z,22.21
2018-06-19T00:48:26.494Z,22.21
2018-06-19T00:49:26.523Z,22.2
2018-06-19T00:50:26.386Z,22.21
2018-06-19T00:51:26.292Z,22.21
2018-06-19T00:52:26.476Z,22.21
2018-06-19T00:53:26.514Z,22.2
2018-06-19T00:54:26.382Z,22.21
2018-06-19T00:55:26.563Z,22.2
2018-06-19T00:56:26.620Z,22.2
2018-06-19T00:57:26.530Z,22.21
2018-06-19T00:58:26.380Z,22.19
2018-06-19T00:59:26.468Z,22.2
2018-06-19T01:00:26.372Z,22.21
2018-06-19T01:01:26.549Z,22.19
2018-06-19T01:02:26.540Z,22.2
2018-06-19T01:03:26.390Z,22.2
2018-06-19T01:04:26.499Z,22.2
2018-06-19T01:05:26.425Z,22.2
2018-06-19T01:06:26.467Z,22.2
2018-06-19T01:07:26.531Z,22.2
2018-06-19T01:08:26.845Z,22.2
2018-06-19T01:09:44.343Z,22.2
2018-06-19T01:10:26.495Z,22.19
2018-06-19T01:11:26.408Z,22.2
2018-06-19T01:12:26.359Z,22.19
2018-06-19T01:13:26.658Z,22.2
2018-06-19T01:14:26.385Z,22.19
2018-06-19T01:15:26.512Z,22.2
2018-06-19T01:16:26.386Z,22.19
2018-06-19T01:17:26.796Z,22.2
2018-06-19T01:18:26.659Z,22.2
2018-06-19T01:19:26.341Z,22.18
2018-06-19T01:20:26.619Z,22.2
2018-06-19T01:21:36.510Z,22.2
2018-06-19T01:22:26.547Z,22.19
2018-06-19T01:23:26.548Z,22.19
2018-06-19T01:24:26.449Z,22.2
2018-06-19T01:25:26.595Z,22.18
2018-06-19T01:26:26.882Z,22.19
2018-06-19T01:27:26.394Z,22.2
2018-06-19T01:28:26.380Z,22.18
2018-06-19T01:29:26.510Z,22.19
2018-06-19T01:30:26.429Z,22.19
2018-06-19T01:31:26.611Z,22.18
2018-06-19T01:32:26.584Z,22.2
2018-06-19T01:33:26.383Z,22.19
2018-06-19T01:34:26.465Z,22.18
2018-06-19T01:35:26.711Z,22.19
2018-06-19T01:36:26.479Z,22.19
2018-06-19T01:37:26.499Z,22.18
2018-06-19T01:38:26.501Z,22.18
2018-06-19T01:39:26.649Z,22.18
2018-06-19T01:40:26.444Z,22.18
2018-06-19T01:41:26.582Z,22.18
2018-06-19T01:42:26.517Z,22.19
2018-06-19T01:43:26.795Z,22.19
2018-06-19T01:44:26.604Z,22.19
2018-06-19T01:45:26.361Z,22.19
2018-06-19T01:46:26.405Z,22.18
2018-06-19T01:47:26.422Z,22.19
2018-06-19T01:48:26.445Z,22.19
2018-06-19T01:49:26.603Z,22.18
2018-06-19T01:50:26.293Z,22.18
2018-06-19T01:51:26.583Z,22.19
2018-06-19T01:52:26.487Z,22.18
2018-06-19T01:53:26.286Z,22.18
2018-06-19T01:54:26.389Z,22.18
2018-06-19T01:55:26.317Z,22.18
2018-06-19T01:56:26.527Z,22.17
2018-06-19T01:57:26.556Z,22.18
2018-06-19T01:58:26.538Z,22.18
2018-06-19T01:59:26.504Z,22.18
2018-06-19T02:00:26.406Z,22.18
2018-06-19T02:01:26.729Z,22.17
2018-06-19T02:02:26.288Z,22.17
2018-06-19T02:03:26.527Z,22.18
2018-06-19T02:04:26.384Z,22.18
2018-06-19T02:05:26.476Z,22.18
2018-06-19T02:06:26.329Z,22.18
2018-06-19T02:07:26.552Z,22.17
2018-06-19T02:08:26.473Z,22.17
2018-06-19T02:09:26.563Z,22.18
2018-06-19T02:10:26.460Z,22.17
2018-06-19T02:11:26.328Z,22.17
2018-06-19T02:12:26.458Z,22.18
2018-06-19T02:13:26.397Z,22.17
2018-06-19T02:14:26.607Z,22.17
2018-06-19T02:15:26.377Z,22.16
2018-06-19T02:16:26.461Z,22.16
2018-06-19T02:17:26.426Z,22.17
2018-06-19T02:18:26.334Z,22.17
2018-06-19T02:19:26.366Z,22.16
2018-06-19T02:20:26.556Z,22.17
2018-06-19T02:21:26.645Z,22.17
2018-06-19T02:22:26.539Z,22.17
2018-06-19T02:23:26.404Z,22.18
2018-06-19T02:24:26.834Z,22.17
2018-06-19T02:25:26.543Z,22.17
2018-06-19T02:26:26.522Z,22.18
2018-06-19T02:27:26.369Z,22.17
2018-06-19T02:28:26.502Z,22.17
2018-06-19T02:29:26.356Z,22.17
2018-06-19T02:30:26.276Z,22.17
2018-06-19T02:31:26.403Z,22.16
2018-06-19T02:32:26.592Z,22.17
2018-06-19T02:33:26.779Z,22.17
2018-06-19T02:34:26.353Z,22.16
2018-06-19T02:35:26.290Z,22.17
2018-06-19T02:36:26.483Z,22.17
2018-06-19T02:37:26.450Z,22.16
2018-06-19T02:38:26.422Z,22.17
2018-06-19T02:39:26.344Z,22.16
2018-06-19T02:40:26.442Z,22.16
2018-06-19T02:41:26.632Z,22.17
2018-06-19T02:42:26.386Z,22.17
2018-06-19T02:43:26.570Z,22.16
2018-06-19T02:44:26.592Z,22.16
2018-06-19T02:45:26.355Z,22.16
2018-06-19T02:46:26.417Z,22.16
2018-06-19T02:47:26.321Z,22.16
2018-06-19T02:48:26.429Z,22.16
2018-06-19T02:49:26.458Z,22.16
2018-06-19T02:50:26.630Z,22.16
2018-06-19T02:51:26.459Z,22.16
2018-06-19T02:52:26.461Z,22.15
2018-06-19T02:53:26.559Z,22.16
2018-06-19T02:54:26.479Z,22.16
2018-06-19T02:55:26.376Z,22.16
2018-06-19T02:56:26.449Z,22.16
2018-06-19T02:57:26.470Z,22.16
2018-06-19T02:58:26.589Z,22.16
2018-06-19T02:59:26.388Z,22.16
2018-06-19T03:00:26.521Z,22.17
2018-06-19T03:01:26.424Z,22.15
2018-06-19T03:02:26.489Z,22.16
2018-06-19T03:03:26.419Z,22.16
2018-06-19T03:04:26.591Z,22.16
2018-06-19T03:05:26.230Z,22.15
2018-06-19T03:06:26.481Z,22.16
2018-06-19T03:07:26.590Z,22.15
2018-06-19T03:08:26.387Z,22.16
2018-06-19T03:09:26.439Z,22.16
2018-06-19T03:10:26.391Z,22.15
2018-06-19T03:11:26.491Z,22.15
2018-06-19T03:12:26.447Z,22.15
2018-06-19T03:13:26.395Z,22.15
2018-06-19T03:14:26.318Z,22.15
2018-06-19T03:15:26.558Z,22.15
2018-06-19T03:16:26.570Z,22.14
2018-06-19T03:17:26.485Z,22.15
2018-06-19T03:18:26.554Z,22.15
2018-06-19T03:19:26.286Z,22.15
2018-06-19T03:20:26.515Z,22.15
2018-06-19T03:21:26.376Z,22.15
2018-06-19T03:22:26.442Z,22.15
2018-06-19T03:23:26.304Z,22.15
2018-06-19T03:24:26.516Z,22.15
2018-06-19T03:25:26.342Z,22.15
2018-06-19T03:26:26.450Z,22.15
2018-06-19T03:27:26.479Z,22.16
2018-06-19T03:28:26.433Z,22.15
2018-06-19T03:29:26.477Z,22.15
2018-06-19T03:30:26.484Z,22.14
2018-06-19T03:31:26.446Z,22.14
2018-06-19T03:32:26.357Z,22.15
2018-06-19T03:33:26.484Z,22.15
2018-06-19T03:34:26.358Z,22.15
2018-06-19T03:35:26.368Z,22.14
2018-06-19T03:36:26.603Z,22.15
2018-06-19T03:37:26.647Z,22.14
2018-06-19T03:38:26.407Z,22.16
2018-06-19T03:39:26.338Z,22.14
2018-06-19T03:40:26.424Z,22.14
2018-06-19T03:41:26.286Z,22.15
2018-06-19T03:42:26.645Z,22.14
2018-06-19T03:43:26.461Z,22.14
2018-06-19T03:44:26.654Z,22.14
2018-06-19T03:45:26.557Z,22.14
2018-06-19T03:46:26.439Z,22.14
2018-06-19T03:47:26.398Z,22.14
2018-06-19T03:48:26.409Z,22.14
2018-06-19T03:49:26.402Z,22.14
2018-06-19T03:50:26.455Z,22.14
2018-06-19T03:51:26.626Z,22.14
2018-06-19T03:52:26.507Z,22.14
2018-06-19T03:53:26.573Z,22.14
2018-06-19T03:54:26.540Z,22.14
2018-06-19T03:55:26.383Z,22.14
2018-06-19T03:56:26.375Z,22.14
2018-06-19T03:57:26.717Z,22.14
2018-06-19T03:58:26.807Z,22.14
2018-06-19T03:59:26.288Z,22.13
2018-06-19T04:00:26.558Z,22.15
2018-06-19T04:01:36.603Z,22.13
2018-06-19T04:02:26.413Z,22.14
2018-06-19T04:03:26.458Z,22.14
2018-06-19T04:04:26.262Z,22.14
2018-06-19T04:05:26.338Z,22.13
2018-06-19T04:06:26.316Z,22.14
2018-06-19T04:07:26.503Z,22.13
2018-06-19T04:08:26.380Z,22.13
2018-06-19T04:09:26.541Z,22.13
2018-06-19T04:10:26.355Z,22.13
2018-06-19T04:11:26.484Z,22.13
2018-06-19T04:12:26.522Z,22.13
2018-06-19T04:13:26.278Z,22.13
2018-06-19T04:14:26.269Z,22.13
2018-06-19T04:15:26.538Z,22.14
2018-06-19T04:16:26.324Z,22.13
2018-06-19T04:17:26.334Z,22.13
2018-06-19T04:18:26.530Z,22.13
2018-06-19T04:19:26.538Z,22.13
2018-06-19T04:20:26.428Z,22.13
2018-06-19T04:21:26.305Z,22.13
2018-06-19T04:22:26.429Z,22.12
2018-06-19T04:23:26.356Z,22.13
2018-06-19T04:24:26.516Z,22.13
2018-06-19T04:25:26.481Z,22.12
2018-06-19T04:26:26.437Z,22.13
2018-06-19T04:27:26.498Z,22.13
2018-06-19T04:28:26.310Z,22.13
2018-06-19T04:29:26.319Z,22.13
2018-06-19T04:30:26.308Z,22.12
2018-06-19T04:31:26.286Z,22.12
2018-06-19T04:32:26.438Z,22.12
2018-06-19T04:33:26.401Z,22.12
2018-06-19T04:34:26.326Z,22.12
2018-06-19T04:35:26.524Z,22.12
2018-06-19T04:36:26.517Z,22.12
2018-06-19T04:37:26.390Z,22.11
2018-06-19T04:38:26.439Z,22.12
2018-06-19T04:39:26.521Z,22.12
2018-06-19T04:40:26.498Z,22.12
2018-06-19T04:41:26.548Z,22.12
2018-06-19T04:42:26.340Z,22.13
2018-06-19T04:43:26.534Z,22.11
2018-06-19T04:44:26.427Z,22.13
2018-06-19T04:45:26.439Z,22.12
2018-06-19T04:46:26.427Z,22.11
2018-06-19T04:47:26.411Z,22.12
2018-06-19T04:48:26.409Z,22.12
2018-06-19T04:49:26.649Z,22.12
2018-06-19T04:50:26.348Z,22.12
2018-06-19T04:51:26.262Z,22.12
2018-06-19T04:52:26.356Z,22.12
2018-06-19T04:53:26.341Z,22.12
2018-06-19T04:54:26.293Z,22.12
2018-06-19T04:55:26.334Z,22.12
2018-06-19T04:56:26.508Z,22.12
2018-06-19T04:57:26.627Z,22.12
2018-06-19T04:58:26.498Z,22.11
2018-06-19T04:59:26.431Z,22.12
2018-06-19T05:00:26.250Z,22.12
2018-06-19T05:01:26.266Z,22.11
2018-06-19T05:02:26.390Z,22.11
2018-06-19T05:03:26.855Z,22.12
2018-06-19T05:04:26.256Z,22.11
2018-06-19T05:05:26.460Z,22.12
2018-06-19T05:06:26.509Z,22.12
2018-06-19T05:07:26.409Z,22.12
2018-06-19T05:08:26.334Z,22.12
2018-06-19T05:09:26.322Z,22.13
2018-06-19T05:10:26.376Z,22.12
2018-06-19T05:11:26.626Z,22.12
2018-06-19T05:12:26.375Z,22.12
2018-06-19T05:13:26.384Z,22.11
2018-06-19T05:14:26.452Z,22.12
2018-06-19T05:15:26.363Z,22.12
2018-06-19T05:16:26.443Z,22.11
2018-06-19T05:17:26.419Z,22.12
2018-06-19T05:18:26.301Z,22.12
2018-06-19T05:19:26.433Z,22.11
2018-06-19T05:20:26.307Z,22.11
2018-06-19T05:21:26.381Z,22.12
2018-06-19T05:22:26.401Z,22.12
2018-06-19T05:23:26.251Z,22.11
2018-06-19T05:24:26.296Z,22.12
2018-06-19T05:25:26.511Z,22.12
2018-06-19T05:26:26.475Z,22.12
2018-06-19T05:27:26.259Z,22.12
2018-06-19T05:28:26.473Z,22.11
2018-06-19T05:29:26.488Z,22.12
2018-06-19T05:30:26.458Z,22.12
2018-06-19T05:31:26.272Z,22.11
2018-06-19T05:32:26.637Z,22.12
2018-06-19T05:33:26.349Z,22.11
2018-06-19T05:34:26.506Z,22.11
2018-06-19T05:35:26.496Z,22.12
2018-06-19T05:36:26.394Z,22.12
2018-06-19T05:37:26.264Z,22.11
2018-06-19T05:38:26.333Z,22.11
2018-06-19T05:39:26.414Z,22.11
2018-06-19T05:40:26.434Z,22.11
2018-06-19T05:41:26.493Z,22.12
2018-06-19T05:42:26.329Z,22.12
2018-06-19T05:43:26.310Z,22.11
2018-06-19T05:44:26.334Z,22.1
2018-06-19T05:45:26.265Z,22.12
2018-06-19T05:46:26.400Z,22.12
2018-06-19T05:47:26.323Z,22.11
2018-06-19T05:48:26.365Z,22.12
2018-06-19T05:49:26.385Z,22.11
2018-06-19T05:50:26.367Z,22.12
2018-06-19T05:51:26.548Z,22.12
2018-06-19T05:52:26.431Z,22.11
2018-06-19T05:53:26.301Z,22.11
2018-06-19T05:54:26.330Z,22.12
2018-06-19T05:55:26.425Z,22.12
2018-06-19T05:56:26.427Z,22.12
2018-06-19T05:57:26.617Z,22.11
2018-06-19T05:58:26.226Z,22.11
2018-06-19T05:59:26.428Z,22.11
2018-06-19T06:00:27.521Z,22.12
2018-06-19T06:01:26.389Z,22.11
2018-06-19T06:02:26.435Z,22.11
2018-06-19T06:03:26.351Z,22.12
2018-06-19T06:04:26.500Z,22.11
2018-06-19T06:05:26.432Z,22.11
2018-06-19T06:06:26.517Z,22.12
2018-06-19T06:07:26.409Z,22.11
2018-06-19T06:08:26.644Z,22.11
2018-06-19T06:09:26.373Z,22.11
2018-06-19T06:10:26.504Z,22.12
2018-06-19T06:11:26.448Z,22.11
2018-06-19T06:12:26.289Z,22.12
2018-06-19T06:13:26.624Z,22.11
2018-06-19T06:14:26.431Z,22.11
2018-06-19T06:15:26.421Z,22.11
2018-06-19T06:16:26.545Z,22.11
2018-06-19T06:17:26.582Z,22.12
2018-06-19T06:18:26.617Z,22.11
2018-06-19T06:19:26.490Z,22.1
2018-06-19T06:20:26.360Z,22.11
2018-06-19T06:21:26.499Z,22.12
2018-06-19T06:22:26.537Z,22.11
2018-06-19T06:23:26.526Z,22.11
2018-06-19T06:24:26.483Z,22.14
2018-06-19T06:25:26.495Z,22.12
2018-06-19T06:26:26.320Z,22.13
2018-06-19T06:27:26.547Z,22.14
2018-06-19T06:28:26.403Z,22.12
2018-06-19T06:29:26.238Z,22.12
2018-06-19T06:30:26.349Z,22.11
2018-06-19T06:31:26.563Z,22.12
2018-06-19T06:32:26.261Z,22.13
2018-06-19T06:33:26.447Z,22.12
2018-06-19T06:34:26.388Z,22.13
2018-06-19T06:35:26.443Z,22.12
2018-06-19T06:36:26.413Z,22.12
2018-06-19T06:37:26.579Z,22.12
2018-06-19T06:38:26.307Z,22.12
2018-06-19T06:39:26.391Z,22.12
2018-06-19T06:40:26.469Z,22.12
2018-06-19T06:41:26.605Z,22.12
2018-06-19T06:42:26.672Z,22.12
2018-06-19T06:43:26.496Z,22.12
2018-06-19T06:44:26.310Z,22.12
2018-06-19T06:45:26.640Z,22.12
2018-06-19T06:46:26.587Z,22.11
2018-06-19T06:47:26.276Z,22.12
2018-06-19T06:48:26.356Z,22.12
2018-06-19T06:49:26.478Z,22.12
2018-06-19T06:50:26.654Z,22.12
2018-06-19T06:51:26.512Z,22.12
2018-06-19T06:52:26.375Z,22.12
2018-06-19T06:53:26.497Z,22.12
2018-06-19T06:54:26.343Z,22.12
2018-06-19T06:55:26.441Z,22.11
2018-06-19T06:56:26.418Z,22.12
2018-06-19T06:57:26.238Z,22.12
2018-06-19T06:58:26.398Z,22.12
2018-06-19T06:59:26.467Z,22.12
2018-06-19T07:00:26.454Z,22.12
2018-06-19T07:01:26.446Z,22.12
2018-06-19T07:02:26.239Z,22.12
2018-06-19T07:03:26.490Z,22.12
2018-06-19T07:04:26.323Z,22.11
2018-06-19T07:05:26.306Z,22.11
2018-06-19T07:06:26.245Z,22.12
2018-06-19T07:07:26.556Z,22.11
2018-06-19T07:08:26.444Z,22.11
2018-06-19T07:09:26.382Z,22.11
2018-06-19T07:10:26.325Z,22.11
2018-06-19T07:11:26.357Z,22.12
2018-06-19T07:12:26.498Z,22.11
2018-06-19T07:13:26.504Z,22.11
2018-06-19T07:14:26.399Z,22.11
2018-06-19T07:15:26.293Z,22.11
2018-06-19T07:16:26.601Z,22.11
2018-06-19T07:17:26.240Z,22.1
2018-06-19T07:18:26.326Z,22.11
2018-06-19T07:19:26.480Z,22.11
2018-06-19T07:20:26.592Z,22.11
2018-06-19T07:21:26.378Z,22.12
2018-06-19T07:22:26.427Z,22.11
2018-06-19T07:23:26.457Z,22.11
2018-06-19T07:24:26.442Z,22.12
2018-06-19T07:25:26.323Z,22.11
2018-06-19T07:26:26.355Z,22.11
2018-06-19T07:27:26.401Z,22.12
2018-06-19T07:28:26.349Z,22.11
2018-06-19T07:29:26.329Z,22.11
2018-06-19T07:30:26.456Z,22.12
2018-06-19T07:31:26.205Z,22.1
2018-06-19T07:32:26.352Z,22.12
2018-06-19T07:33:26.410Z,22.12
2018-06-19T07:34:26.468Z,22.11
2018-06-19T07:35:26.237Z,22.12
2018-06-19T07:36:26.349Z,22.11
2018-06-19T07:37:26.473Z,22.11
2018-06-19T07:38:26.511Z,22.11
2018-06-19T07:39:26.640Z,22.11
2018-06-19T07:40:26.470Z,22.1
2018-06-19T07:41:26.517Z,22.11
2018-06-19T07:42:26.422Z,22.11
2018-06-19T07:43:26.576Z,22.11
2018-06-19T07:44:26.300Z,22.1
2018-06-19T07:45:26.269Z,22.11
2018-06-19T07:46:26.526Z,22.1
2018-06-19T07:47:26.326Z,22.11
2018-06-19T07:48:26.518Z,22.11
2018-06-19T07:49:26.422Z,22.11
2018-06-19T07:50:26.392Z,22.1
2018-06-19T07:51:26.500Z,22.11
2018-06-19T07:52:26.650Z,22.11
2018-06-19T07:53:26.623Z,22.11
2018-06-19T07:54:26.793Z,22.11
2018-06-19T07:55:26.741Z,22.11
2018-06-19T07:56:26.635Z,22.11
2018-06-19T07:57:26.263Z,22.11
2018-06-19T07:58:26.408Z,22.1
2018-06-19T07:59:26.357Z,22.11
2018-06-19T08:00:26.256Z,22.11
2018-06-19T08:01:26.374Z,22.11
2018-06-19T08:02:26.268Z,22.1
2018-06-19T08:03:26.378Z,22.11
2018-06-19T08:04:26.471Z,22.11
2018-06-19T08:05:26.294Z,22.11
2018-06-19T08:06:26.533Z,22.11
2018-06-19T08:07:26.435Z,22.1
2018-06-19T08:08:26.302Z,22.1
2018-06-19T08:09:26.481Z,22.11
2018-06-19T08:10:26.478Z,22.11
2018-06-19T08:11:26.210Z,22.11
2018-06-19T08:12:26.389Z,22.11
2018-06-19T08:13:26.481Z,22.11
2018-06-19T08:14:26.325Z,22.11
2018-06-19T08:15:26.435Z,22.11
2018-06-19T08:16:26.446Z,22.1
2018-06-19T08:17:26.482Z,22.11
2018-06-19T08:18:26.410Z,22.1
2018-06-19T08:19:26.331Z,22.11
2018-06-19T08:20:26.286Z,22.11
2018-06-19T08:21:26.351Z,22.11
2018-06-19T08:22:26.350Z,22.1
2018-06-19T08:23:26.445Z,22.11
2018-06-19T08:24:26.475Z,22.1
2018-06-19T08:25:26.591Z,22.1
2018-06-19T08:26:26.440Z,22.1
2018-06-19T08:27:26.425Z,22.1
2018-06-19T08:28:26.296Z,22.1
2018-06-19T08:29:26.205Z,22.12
2018-06-19T08:30:26.360Z,22.11
2018-06-19T08:31:26.527Z,22.11
2018-06-19T08:32:26.298Z,22.11
2018-06-19T08:33:26.418Z,22.11
2018-06-19T08:34:26.304Z,22.1
2018-06-19T08:35:26.202Z,22.11
2018-06-19T08:36:26.705Z,22.1
2018-06-19T08:37:26.209Z,22.11
2018-06-19T08:38:26.117Z,22.11
2018-06-19T08:39:26.395Z,22.1
2018-06-19T08:40:26.186Z,22.11
2018-06-19T08:41:26.423Z,22.1
2018-06-19T08:42:26.403Z,22.11
2018-06-19T08:43:26.275Z,22.1
2018-06-19T08:44:26.381Z,22.1
2018-06-19T08:45:26.316Z,22.11
2018-06-19T08:46:26.509Z,22.1
2018-06-19T08:47:26.228Z,22.11
2018-06-19T08:48:26.472Z,22.11
2018-06-19T08:49:26.418Z,22.11
2018-06-19T08:50:26.304Z,22.11
2018-06-19T08:51:26.262Z,22.11
2018-06-19T08:52:26.233Z,22.1
2018-06-19T08:53:26.290Z,22.1
2018-06-19T08:54:26.468Z,22.1
2018-06-19T08:55:26.503Z,22.1
2018-06-19T08:56:26.792Z,22.1
2018-06-19T08:57:26.490Z,22.11
2018-06-19T08:58:26.487Z,22.1
2018-06-19T08:59:26.628Z,22.1
2018-06-19T09:00:26.270Z,22.11
2018-06-19T09:01:26.410Z,22.1
2018-06-19T09:02:26.331Z,22.1
2018-06-19T09:03:26.325Z,22.1
2018-06-19T09:04:26.642Z,22.1
2018-06-19T09:05:26.257Z,22.1
2018-06-19T09:06:26.287Z,22.11
2018-06-19T09:07:26.393Z,22.1
2018-06-19T09:08:26.191Z,22.11
2018-06-19T09:09:26.406Z,22.1
2018-06-19T09:10:26.289Z,22.1
2018-06-19T09:11:26.374Z,22.1
2018-06-19T09:12:26.532Z,22.1
2018-06-19T09:13:26.297Z,22.1
2018-06-19T09:14:26.214Z,22.11
2018-06-19T09:15:26.384Z,22.1
2018-06-19T09:16:26.158Z,22.1
2018-06-19T09:17:26.357Z,22.1
2018-06-19T09:18:26.422Z,22.1
2018-06-19T09:19:26.334Z,22.1
2018-06-19T09:20:26.365Z,22.1
2018-06-19T09:21:26.293Z,22.1
2018-06-19T09:22:26.449Z,22.1
2018-06-19T09:23:26.163Z,22.1
2018-06-19T09:24:26.281Z,22.1
2018-06-19T09:25:26.429Z,22.1
2018-06-19T09:26:26.374Z,22.1
2018-06-19T09:27:26.302Z,22.11
2018-06-19T09:28:26.327Z,22.11
2018-06-19T09:29:26.346Z,22.1
2018-06-19T09:30:26.229Z,22.1
2018-06-19T09:31:26.239Z,22.1
2018-06-19T09:32:26.335Z,22.1
2018-06-19T09:33:26.279Z,22.1
2018-06-19T09:34:26.215Z,22.1
2018-06-19T09:35:26.478Z,22.1
2018-06-19T09:36:26.388Z,22.11
2018-06-19T09:37:26.310Z,22.1
2018-06-19T09:38:26.378Z,22.1
2018-06-19T09:39:26.364Z,22.1
2018-06-19T09:40:26.494Z,22.1
2018-06-19T09:41:26.404Z,22.1
2018-06-19T09:42:26.341Z,22.11
2018-06-19T09:43:26.517Z,22.08
2018-06-19T09:44:26.356Z,22.1
2018-06-19T09:45:26.404Z,22.1
2018-06-19T09:46:26.468Z,22.1
2018-06-19T09:47:26.498Z,22.1
2018-06-19T09:48:26.421Z,22.1
2018-06-19T09:49:26.249Z,22.1
2018-06-19T09:50:26.387Z,22.1
2018-06-19T09:51:26.356Z,22.1
2018-06-19T09:52:26.851Z,22.1
2018-06-19T09:53:26.401Z,22.1
2018-06-19T09:54:26.525Z,22.11
2018-06-19T09:55:26.179Z,22.1
2018-06-19T09:56:26.240Z,22.1
2018-06-19T09:57:26.487Z,22.12
2018-06-19T09:58:26.293Z,22.13
2018-06-19T09:59:36.430Z,22.11
2018-06-19T10:00:26.360Z,22.14
2018-06-19T10:01:26.400Z,22.15
2018-06-19T10:02:26.417Z,22.16
2018-06-19T10:03:26.489Z,22.18
2018-06-19T10:04:26.342Z,22.21
2018-06-19T10:05:26.397Z,22.22
2018-06-19T10:06:26.424Z,22.23
2018-06-19T10:07:26.528Z,22.23
2018-06-19T10:08:26.368Z,22.25
2018-06-19T10:09:26.237Z,22.24
2018-06-19T10:10:26.505Z,22.25
2018-06-19T10:11:26.285Z,22.26
2018-06-19T10:12:26.384Z,22.28
2018-06-19T10:13:26.324Z,22.27
2018-06-19T10:14:26.307Z,22.28
2018-06-19T10:15:26.347Z,22.29
2018-06-19T10:16:26.224Z,22.29
2018-06-19T10:17:26.276Z,22.3
2018-06-19T10:18:26.327Z,22.3
2018-06-19T10:19:26.484Z,22.3
2018-06-19T10:20:26.300Z,22.31
2018-06-19T10:21:26.417Z,22.31
2018-06-19T10:22:26.420Z,22.3
2018-06-19T10:23:26.373Z,22.31
2018-06-19T10:24:26.323Z,22.32
2018-06-19T10:25:26.399Z,22.31
2018-06-19T10:26:26.414Z,22.33
2018-06-19T10:27:26.239Z,22.34
2018-06-19T10:28:26.490Z,22.33
2018-06-19T10:29:26.306Z,22.33
2018-06-19T10:30:26.464Z,22.34
2018-06-19T10:31:26.195Z,22.34
2018-06-19T10:32:26.261Z,22.35
2018-06-19T10:33:26.378Z,22.35
2018-06-19T10:34:26.453Z,22.36
2018-06-19T10:35:26.343Z,22.31
2018-06-19T10:36:26.253Z,22.34
2018-06-19T10:37:26.401Z,22.33
2018-06-19T10:38:26.266Z,22.34
2018-06-19T10:39:26.370Z,22.35
2018-06-19T10:40:26.301Z,22.36
2018-06-19T10:41:26.313Z,22.37
2018-06-19T10:42:26.448Z,22.37
2018-06-19T10:43:26.212Z,22.39
2018-06-19T10:44:26.425Z,22.38
2018-06-19T10:45:26.343Z,22.37
2018-06-19T10:46:26.348Z,22.37
2018-06-19T10:47:26.410Z,22.34
2018-06-19T10:48:26.347Z,22.36
2018-06-19T10:49:26.182Z,22.36
2018-06-19T10:50:26.270Z,22.36
2018-06-19T10:51:26.423Z,22.34
2018-06-19T10:52:26.588Z,22.33
2018-06-19T10:53:26.409Z,22.32
2018-06-19T10:54:26.423Z,22.31
2018-06-19T10:55:26.289Z,22.3
2018-06-19T10:56:26.448Z,22.29
2018-06-19T10:57:26.334Z,22.3
2018-06-19T10:58:26.237Z,22.28
2018-06-19T10:59:26.275Z,22.29
2018-06-19T11:00:26.418Z,22.29
2018-06-19T11:01:26.161Z,22.28
2018-06-19T11:02:26.331Z,22.27
2018-06-19T11:03:26.259Z,22.28
2018-06-19T11:04:26.219Z,22.27
2018-06-19T11:05:26.294Z,22.27
2018-06-19T11:06:26.351Z,22.27
2018-06-19T11:07:26.160Z,22.26
2018-06-19T11:08:26.172Z,22.26
2018-06-19T11:09:26.216Z,22.25
2018-06-19T11:10:26.412Z,22.26
2018-06-19T11:11:26.439Z,22.25
2018-06-19T11:12:26.428Z,22.26
2018-06-19T11:13:26.332Z,22.25
2018-06-19T11:14:26.442Z,22.26
2018-06-19T11:15:26.265Z,22.24
2018-06-19T11:16:26.176Z,22.25
2018-06-19T11:17:26.244Z,22.25
2018-06-19T11:18:26.828Z,22.24
2018-06-19T11:19:26.241Z,22.23
2018-06-19T11:20:26.272Z,22.24
2018-06-19T11:21:26.431Z,22.25
2018-06-19T11:22:26.195Z,22.23
2018-06-19T11:23:26.381Z,22.23
2018-06-19T11:24:26.258Z,22.23
2018-06-19T11:25:26.330Z,22.23
2018-06-19T11:26:26.394Z,22.24
2018-06-19T11:27:26.215Z,22.23
2018-06-19T11:28:26.355Z,22.22
2018-06-19T11:29:26.322Z,22.22
2018-06-19T11:30:26.395Z,22.23
2018-06-19T11:31:26.317Z,22.23
2018-06-19T11:32:26.423Z,22.23
2018-06-19T11:33:26.301Z,22.23
2018-06-19T11:34:26.329Z,22.22
2018-06-19T11:35:26.401Z,22.23
2018-06-19T11:36:26.414Z,22.23
2018-06-19T11:37:26.383Z,22.22
2018-06-19T11:38:26.470Z,22.22
2018-06-19T11:39:26.229Z,22.22
2018-06-19T11:40:26.458Z,22.22
2018-06-19T11:41:26.415Z,22.23
2018-06-19T11:42:26.207Z,22.22
2018-06-19T11:43:26.394Z,22.21
2018-06-19T11:44:26.196Z,22.22
2018-06-19T11:45:26.300Z,22.22
2018-06-19T11:46:26.337Z,22.21
2018-06-19T11:47:26.335Z,22.21
2018-06-19T11:48:26.239Z,22.22
2018-06-19T11:49:26.393Z,22.22
2018-06-19T11:50:26.482Z,22.22
2018-06-19T11:51:26.219Z,22.22
2018-06-19T11:52:26.305Z,22.22
2018-06-19T11:53:26.337Z,22.22
2018-06-19T11:54:26.175Z,22.22
2018-06-19T11:55:26.252Z,22.21
2018-06-19T11:56:26.182Z,22.22
2018-06-19T11:57:26.421Z,22.22
2018-06-19T11:58:26.366Z,22.2
2018-06-19T11:59:26.205Z,22.21
2018-06-19T12:00:26.241Z,22.21
2018-06-19T12:01:26.278Z,22.21
2018-06-19T12:02:26.353Z,22.2
2018-06-19T12:03:26.134Z,22.21
2018-06-19T12:04:26.214Z,22.21
2018-06-19T12:05:26.257Z,22.21
2018-06-19T12:06:26.184Z,22.2
2018-06-19T12:07:26.433Z,22.2
2018-06-19T12:08:26.453Z,22.2
2018-06-19T12:09:26.613Z,22.2
2018-06-19T12:10:26.274Z,22.2
2018-06-19T12:11:26.234Z,22.21
2018-06-19T12:12:26.403Z,22.21
2018-06-19T12:13:26.368Z,22.2
2018-06-19T12:14:26.240Z,22.21
2018-06-19T12:15:26.464Z,22.2
2018-06-19T12:16:26.441Z,22.2
2018-06-19T12:17:26.258Z,22.2
2018-06-19T12:18:26.257Z,22.2
2018-06-19T12:19:26.223Z,22.2
2018-06-19T12:20:26.379Z,22.2
2018-06-19T12:21:26.203Z,22.2
2018-06-19T12:22:26.266Z,22.2
2018-06-19T12:23:26.222Z,22.19
2018-06-19T12:24:26.218Z,22.2
2018-06-19T12:25:26.351Z,22.2
2018-06-19T12:26:26.723Z,22.2
2018-06-19T12:27:26.749Z,22.2
2018-06-19T12:28:26.322Z,22.19
2018-06-19T12:29:26.344Z,22.2
2018-06-19T12:30:26.187Z,22.19
2018-06-19T12:31:26.231Z,22.19
2018-06-19T12:32:26.263Z,22.2
2018-06-19T12:33:26.617Z,22.2
2018-06-19T12:34:26.224Z,22.18
2018-06-19T12:35:26.437Z,22.19
2018-06-19T12:36:26.375Z,22.2
2018-06-19T12:37:26.309Z,22.18
2018-06-19T12:38:26.439Z,22.19
2018-06-19T12:39:26.201Z,22.19
2018-06-19T12:40:26.213Z,22.19
2018-06-19T12:41:26.130Z,22.19
2018-06-19T12:42:26.251Z,22.19
2018-06-19T12:43:26.476Z,22.2
2018-06-19T12:44:26.292Z,22.19
2018-06-19T12:45:26.349Z,22.2
2018-06-19T12:46:26.137Z,22.19
2018-06-19T12:47:26.271Z,22.19
2018-06-19T12:48:26.229Z,22.19
2018-06-19T12:49:26.255Z,22.18
2018-06-19T12:50:26.195Z,22.18
2018-06-19T12:51:26.229Z,22.18
2018-06-19T12:52:26.359Z,22.19
2018-06-19T12:53:26.183Z,22.19
2018-06-19T12:54:26.504Z,22.18
2018-06-19T12:55:26.284Z,22.18
2018-06-19T12:56:26.499Z,22.18
2018-06-19T12:57:26.403Z,22.19